createdAt,value
2023-02-28T00:00:21.569Z,-1.02
2023-02-28T00:03:27.876Z,-1.07
2023-02-28T00:06:32.507Z,-1.10
2023-02-28T00:09:38.688Z,-1.14
2023-02-28T00:12:45.196Z,-1.17
2023-02-28T00:16:00.643Z,-1.19
2023-02-28T00:19:06.988Z,-1.20
2023-02-28T00:22:13.329Z,-1.22
2023-02-28T00:25:19.285Z,-1.26
2023-02-28T00:28:24.262Z,-1.30
2023-02-28T00:31:30.759Z,-1.31
2023-02-28T00:34:38.716Z,-1.32
2023-02-28T00:37:45.474Z,-1.31
2023-02-28T00:40:51.745Z,-1.31
2023-02-28T00:43:57.983Z,-1.32
2023-02-28T00:47:02.637Z,-1.33
2023-02-28T00:50:11.475Z,-1.34
2023-02-28T00:53:17.741Z,-1.35
2023-02-28T00:56:23.940Z,-1.35
2023-02-28T00:59:30.240Z,-1.37
2023-02-28T01:02:34.844Z,-1.40
2023-02-28T01:05:42.455Z,-1.44
2023-02-28T01:08:48.757Z,-1.47
2023-02-28T01:11:53.266Z,-1.50
2023-02-28T01:14:59.541Z,-1.53
2023-02-28T01:18:04.015Z,-1.57
2023-02-28T01:21:11.854Z,-1.61
2023-02-28T01:24:18.198Z,-1.66
2023-02-28T01:27:22.720Z,-1.70
2023-02-28T01:30:29.019Z,-1.75
2023-02-28T01:33:33.972Z,-1.79
2023-02-28T01:36:40.237Z,-1.82
2023-02-28T01:39:44.830Z,-1.84
2023-02-28T01:42:51.070Z,-1.85
2023-02-28T01:45:56.200Z,-1.88
2023-02-28T01:49:07.748Z,-1.92
2023-02-28T01:52:19.116Z,-1.96
2023-02-28T01:55:29.774Z,-2.06
2023-02-28T01:58:36.587Z,-2.19
2023-02-28T02:01:42.914Z,-2.26
2023-02-28T02:04:52.489Z,-2.29
2023-02-28T02:08:03.669Z,-2.33
2023-02-28T02:11:13.158Z,-2.33
2023-02-28T02:14:35.291Z,-2.32
2023-02-28T02:17:46.898Z,-2.32
2023-02-28T02:21:37.548Z,-2.35
2023-02-28T02:25:05.521Z,-2.38
2023-02-28T02:28:38.755Z,-2.44
2023-02-28T02:32:19.934Z,-2.47
2023-02-28T02:35:29.894Z,-2.49
2023-02-28T02:38:41.852Z,-2.52
2023-02-28T02:41:53.483Z,-2.55
2023-02-28T02:45:07.285Z,-2.64
2023-02-28T02:48:18.276Z,-2.69
2023-02-28T02:51:27.230Z,-2.69
2023-02-28T02:54:37.740Z,-2.67
2023-02-28T02:57:48.716Z,-2.64
2023-02-28T03:00:59.216Z,-2.66
2023-02-28T03:04:10.048Z,-2.71
2023-02-28T03:07:16.575Z,-2.74
2023-02-28T03:10:39.091Z,-2.76
2023-02-28T03:14:01.649Z,-2.78
2023-02-28T03:17:24.030Z,-2.80
2023-02-28T03:20:42.229Z,-2.81
2023-02-28T03:23:54.961Z,-2.82
2023-02-28T03:27:06.009Z,-2.84
2023-02-28T03:30:18.544Z,-2.89
2023-02-28T03:33:30.661Z,-2.92
2023-02-28T03:36:45.074Z,-2.92
2023-02-28T03:39:56.449Z,-2.89
2023-02-28T03:43:05.933Z,-2.95
2023-02-28T03:46:15.777Z,-2.99
2023-02-28T03:49:25.224Z,-3.03
2023-02-28T03:52:34.618Z,-3.09
2023-02-28T03:55:45.014Z,-3.15
2023-02-28T03:58:57.756Z,-3.20
2023-02-28T04:02:04.400Z,-3.22
2023-02-28T04:05:11.911Z,-3.27
2023-02-28T04:08:18.084Z,-3.30
2023-02-28T04:11:30.388Z,-3.33
2023-02-28T04:14:36.899Z,-3.36
2023-02-28T04:17:41.387Z,-3.43
2023-02-28T04:20:48.009Z,-3.45
2023-02-28T04:23:54.365Z,-3.45
2023-02-28T04:26:59.828Z,-3.47
2023-02-28T04:30:07.010Z,-3.48
2023-02-28T04:33:13.237Z,-3.51
2023-02-28T04:36:18.802Z,-3.54
2023-02-28T04:39:25.966Z,-3.53
2023-02-28T04:42:36.768Z,-3.53
2023-02-28T04:45:43.083Z,-3.54
2023-02-28T04:48:49.405Z,-3.55
2023-02-28T04:51:56.781Z,-3.55
2023-02-28T04:55:03.037Z,-3.56
2023-02-28T04:58:09.770Z,-3.58
2023-02-28T05:01:25.865Z,-3.61
2023-02-28T05:04:35.348Z,-3.63
2023-02-28T05:07:41.684Z,-3.64
2023-02-28T05:10:48.219Z,-3.66
2023-02-28T05:13:55.191Z,-3.68
2023-02-28T05:17:01.382Z,-3.73
2023-02-28T05:20:15.715Z,-3.76
2023-02-28T05:23:24.895Z,-3.80
2023-02-28T05:26:31.505Z,-3.83
2023-02-28T05:29:44.376Z,-3.83
2023-02-28T05:32:53.819Z,-3.84
2023-02-28T05:36:00.195Z,-3.86
2023-02-28T05:39:07.241Z,-3.89
2023-02-28T05:42:13.491Z,-3.92
2023-02-28T05:45:18.265Z,-3.94
2023-02-28T05:48:24.567Z,-3.96
2023-02-28T05:51:29.329Z,-3.99
2023-02-28T05:54:35.979Z,-3.97
2023-02-28T05:57:42.228Z,-3.95
2023-02-28T06:00:46.873Z,-3.95
2023-02-28T06:03:53.345Z,-3.94
2023-02-28T06:06:59.757Z,-3.93
2023-02-28T06:10:06.238Z,-3.89
2023-02-28T06:13:12.745Z,-3.88
2023-02-28T06:16:19.022Z,-3.86
2023-02-28T06:19:23.893Z,-3.80
2023-02-28T06:22:30.242Z,-3.76
2023-02-28T06:25:34.833Z,-3.71
2023-02-28T06:28:41.233Z,-3.65
2023-02-28T06:31:48.032Z,-3.60
2023-02-28T06:34:55.130Z,-3.57
2023-02-28T06:38:01.322Z,-3.52
2023-02-28T06:41:08.246Z,-3.47
2023-02-28T06:44:18.493Z,-3.42
2023-02-28T06:47:24.838Z,-3.34
2023-02-28T06:50:30.714Z,-3.26
2023-02-28T06:53:35.349Z,-3.17
2023-02-28T06:56:41.972Z,-3.08
2023-02-28T06:59:48.304Z,-3.02
2023-02-28T07:02:55.035Z,-2.93
2023-02-28T07:06:01.319Z,-2.84
2023-02-28T07:09:06.382Z,-2.77
2023-02-28T07:12:12.755Z,-2.72
2023-02-28T07:15:17.208Z,-2.70
2023-02-28T07:18:23.416Z,-2.68
2023-02-28T07:21:30.351Z,-2.63
2023-02-28T07:24:36.718Z,-2.55
2023-02-28T07:27:42.893Z,-2.45
2023-02-28T07:30:49.369Z,-2.33
2023-02-28T07:33:57.483Z,-2.22
2023-02-28T07:37:04.895Z,-2.08
2023-02-28T07:40:15.314Z,-1.97
2023-02-28T07:43:21.531Z,-1.80
2023-02-28T07:46:30.658Z,-1.64
2023-02-28T07:49:37.374Z,-1.52
2023-02-28T07:52:43.896Z,-1.51
2023-02-28T07:55:50.350Z,-1.53
2023-02-28T07:58:56.722Z,-1.48
2023-02-28T08:02:01.453Z,-1.39
2023-02-28T08:05:09.371Z,-1.36
2023-02-28T08:08:15.811Z,-1.31
2023-02-28T08:11:22.023Z,-1.25
2023-02-28T08:14:28.382Z,-1.22
2023-02-28T08:17:35.346Z,-1.23
2023-02-28T08:20:41.763Z,-1.17
2023-02-28T08:23:46.682Z,-1.08
2023-02-28T08:26:52.957Z,-1.04
2023-02-28T08:29:57.601Z,-1.04
2023-02-28T08:33:04.108Z,-0.99
2023-02-28T08:36:11.502Z,-0.94
2023-02-28T08:39:17.667Z,-0.92
2023-02-28T08:42:25.146Z,-0.94
2023-02-28T08:45:31.654Z,-0.94
2023-02-28T08:48:39.711Z,-0.92
2023-02-28T08:51:46.054Z,-0.86
2023-02-28T08:54:50.864Z,-0.80
2023-02-28T08:57:57.204Z,-0.74
2023-02-28T09:01:01.810Z,-0.72
2023-02-28T09:04:09.704Z,-0.69
2023-02-28T09:07:16.054Z,-0.58
2023-02-28T09:10:20.646Z,-0.44
2023-02-28T09:13:27.245Z,-0.35
2023-02-28T09:16:34.811Z,-0.25
2023-02-28T09:19:41.359Z,-0.19
2023-02-28T09:22:45.871Z,-0.10
2023-02-28T09:25:54.265Z,-0.07
2023-02-28T09:29:01.113Z,-0.05
2023-02-28T09:32:08.051Z,-0.01
2023-02-28T09:35:17.464Z,0.05
2023-02-28T09:38:23.733Z,0.07
2023-02-28T09:41:31.596Z,0.12
2023-02-28T09:44:43.791Z,0.20
2023-02-28T09:47:53.690Z,0.31
2023-02-28T09:51:05.237Z,0.42
2023-02-28T09:54:20.037Z,0.53
2023-02-28T09:57:34.348Z,0.63
2023-02-28T10:00:44.309Z,0.67
2023-02-28T10:03:59.428Z,0.71
2023-02-28T10:07:18.698Z,0.81
2023-02-28T10:10:29.256Z,0.88
2023-02-28T10:13:40.559Z,0.84
2023-02-28T10:16:53.023Z,0.77
2023-02-28T10:20:09.072Z,0.75
2023-02-28T10:23:21.634Z,0.75
2023-02-28T10:26:31.401Z,0.81
2023-02-28T10:29:38.108Z,0.82
2023-02-28T10:32:44.684Z,0.86
2023-02-28T10:35:51.283Z,0.95
2023-02-28T10:38:57.515Z,1.07
2023-02-28T10:42:03.753Z,1.19
2023-02-28T10:45:17.856Z,1.32
2023-02-28T10:48:35.968Z,1.35
2023-02-28T10:51:43.462Z,1.37
2023-02-28T10:54:49.727Z,1.41
2023-02-28T10:57:56.410Z,1.47
2023-02-28T11:01:03.199Z,1.52
2023-02-28T11:04:22.973Z,1.65
2023-02-28T11:07:37.340Z,1.80
2023-02-28T11:10:51.200Z,1.86
2023-02-28T11:14:00.802Z,1.98
2023-02-28T11:17:17.111Z,2.11
2023-02-28T11:20:25.586Z,2.11
2023-02-28T11:23:37.765Z,2.14
2023-02-28T11:26:46.960Z,2.14
2023-02-28T11:29:53.474Z,2.21
2023-02-28T11:32:59.975Z,2.34
2023-02-28T11:36:15.090Z,2.38
2023-02-28T11:39:21.845Z,2.42
2023-02-28T11:43:00.888Z,2.56
2023-02-28T11:46:23.152Z,2.76
2023-02-28T11:49:38.784Z,2.82
2023-02-28T11:52:53.966Z,2.95
2023-02-28T11:56:06.408Z,3.03
2023-02-28T11:59:32.019Z,3.00
2023-02-28T12:02:48.310Z,3.03
2023-02-28T12:06:03.389Z,3.12
2023-02-28T12:09:23.355Z,3.24
2023-02-28T12:12:41.131Z,3.25
2023-02-28T12:16:11.284Z,3.14
2023-02-28T12:19:27.078Z,3.10
2023-02-28T12:22:38.314Z,3.12
2023-02-28T12:26:01.342Z,3.19
2023-02-28T12:29:15.116Z,3.24
2023-02-28T12:32:24.759Z,3.18
2023-02-28T12:35:39.257Z,3.21
2023-02-28T12:38:50.002Z,3.34
2023-02-28T12:42:01.423Z,3.54
2023-02-28T12:45:14.123Z,3.67
2023-02-28T12:48:28.289Z,3.62
2023-02-28T12:51:37.293Z,3.64
2023-02-28T12:54:53.076Z,3.74
2023-02-28T12:58:04.072Z,3.81
2023-02-28T13:01:38.056Z,3.83
2023-02-28T13:05:03.696Z,3.84
2023-02-28T13:08:32.007Z,3.82
2023-02-28T13:11:44.917Z,3.90
2023-02-28T13:14:51.989Z,4.03
2023-02-28T13:18:00.498Z,4.05
2023-02-28T13:21:08.406Z,4.04
2023-02-28T13:24:35.856Z,4.07
2023-02-28T13:27:43.845Z,3.96
2023-02-28T13:31:10.175Z,3.87
2023-02-28T13:34:20.380Z,3.87
2023-02-28T13:37:44.463Z,3.95
2023-02-28T13:40:50.745Z,3.98
2023-02-28T13:44:14.235Z,3.86
2023-02-28T13:47:30.804Z,3.81
2023-02-28T13:50:39.728Z,3.78
2023-02-28T13:54:06.447Z,3.85
2023-02-28T13:57:29.813Z,4.00
2023-02-28T14:00:55.561Z,4.03
2023-02-28T14:04:21.949Z,3.96
2023-02-28T14:07:36.242Z,3.87
2023-02-28T14:10:47.717Z,3.84
2023-02-28T14:13:54.069Z,3.80
2023-02-28T14:17:01.701Z,3.75
2023-02-28T14:20:15.965Z,3.70
2023-02-28T14:23:36.974Z,3.64
2023-02-28T14:26:59.296Z,3.48
2023-02-28T14:30:23.320Z,3.38
2023-02-28T14:33:40.441Z,3.41
2023-02-28T14:36:47.272Z,3.44
2023-02-28T14:39:53.797Z,3.45
2023-02-28T14:43:01.937Z,3.46
2023-02-28T14:46:09.967Z,3.42
2023-02-28T14:49:23.114Z,3.38
2023-02-28T14:52:32.864Z,3.29
2023-02-28T14:55:39.571Z,3.23
2023-02-28T14:58:56.032Z,3.24
2023-02-28T15:02:25.928Z,3.19
2023-02-28T15:05:34.388Z,3.10
2023-02-28T15:08:40.917Z,3.07
2023-02-28T15:11:52.104Z,3.04
2023-02-28T15:14:58.431Z,3.00
2023-02-28T15:18:05.908Z,2.96
2023-02-28T15:21:17.881Z,2.91
2023-02-28T15:24:39.219Z,2.77
2023-02-28T15:27:49.354Z,2.61
2023-02-28T15:30:58.395Z,2.47
2023-02-28T15:34:08.967Z,2.34
2023-02-28T15:37:42.567Z,2.25
2023-02-28T15:40:54.888Z,2.15
2023-02-28T15:44:27.843Z,2.06
2023-02-28T15:47:35.010Z,1.95
2023-02-28T15:50:42.045Z,1.86
2023-02-28T15:53:54.375Z,1.77
2023-02-28T15:57:03.633Z,1.67
2023-02-28T16:00:16.340Z,1.58
2023-02-28T16:03:37.444Z,1.48
2023-02-28T16:06:46.099Z,1.40
2023-02-28T16:09:52.332Z,1.32
2023-02-28T16:12:59.592Z,1.25
2023-02-28T16:16:06.294Z,1.18
2023-02-28T16:19:13.038Z,1.13
2023-02-28T16:22:19.285Z,1.07
2023-02-28T16:25:31.362Z,1.00
2023-02-28T16:28:40.803Z,0.91
2023-02-28T16:31:47.008Z,0.85
2023-02-28T16:34:53.273Z,0.77
2023-02-28T16:37:57.842Z,0.70
2023-02-28T16:41:04.086Z,0.65
2023-02-28T16:44:15.562Z,0.60
2023-02-28T16:47:21.842Z,0.52
2023-02-28T16:50:27.084Z,0.48
2023-02-28T16:53:33.319Z,0.42
2023-02-28T16:56:41.648Z,0.35
2023-02-28T16:59:48.037Z,0.28
2023-02-28T17:02:53.170Z,0.23
2023-02-28T17:05:59.538Z,0.17
2023-02-28T17:09:04.094Z,0.12
2023-02-28T17:12:12.135Z,0.09
2023-02-28T17:15:20.448Z,0.04
2023-02-28T17:18:27.674Z,-0.01
2023-02-28T17:21:35.169Z,-0.06
2023-02-28T17:24:41.448Z,-0.10
2023-02-28T17:27:46.405Z,-0.17
2023-02-28T17:30:53.027Z,-0.24
2023-02-28T17:33:59.272Z,-0.31
2023-02-28T17:37:05.555Z,-0.37
2023-02-28T17:40:15.115Z,-0.43
2023-02-28T17:43:21.459Z,-0.48
2023-02-28T17:46:26.768Z,-0.51
2023-02-28T17:49:34.210Z,-0.55
2023-02-28T17:52:40.499Z,-0.60
2023-02-28T17:55:45.037Z,-0.64
2023-02-28T17:58:51.760Z,-0.68
2023-02-28T18:01:58.052Z,-0.69
2023-02-28T18:05:05.262Z,-0.68
2023-02-28T18:08:14.126Z,-0.68
2023-02-28T18:11:20.530Z,-0.73
2023-02-28T18:14:26.487Z,-0.77
2023-02-28T18:17:32.797Z,-0.82
2023-02-28T18:20:37.522Z,-0.85
2023-02-28T18:23:48.518Z,-0.87
2023-02-28T18:26:54.842Z,-0.92
2023-02-28T18:30:01.097Z,-0.96
2023-02-28T18:33:07.500Z,-1.02
2023-02-28T18:36:16.330Z,-1.09
2023-02-28T18:39:22.830Z,-1.16
2023-02-28T18:42:29.065Z,-1.21
2023-02-28T18:45:36.291Z,-1.24
2023-02-28T18:48:42.898Z,-1.22
2023-02-28T18:51:49.260Z,-1.22
2023-02-28T18:54:53.799Z,-1.22
2023-02-28T18:58:00.029Z,-1.22
2023-02-28T19:01:15.520Z,-1.27
2023-02-28T19:04:21.807Z,-1.33
2023-02-28T19:07:26.352Z,-1.36
2023-02-28T19:10:32.922Z,-1.39
2023-02-28T19:13:39.331Z,-1.39
2023-02-28T19:16:47.313Z,-1.37
2023-02-28T19:19:53.694Z,-1.37
2023-02-28T19:22:59.878Z,-1.43
2023-02-28T19:26:10.803Z,-1.45
2023-02-28T19:29:17.173Z,-1.42
2023-02-28T19:32:22.101Z,-1.42
2023-02-28T19:35:28.463Z,-1.42
2023-02-28T19:38:33.072Z,-1.44
2023-02-28T19:41:39.332Z,-1.45
2023-02-28T19:44:46.357Z,-1.46
2023-02-28T19:47:52.682Z,-1.49
2023-02-28T19:50:59.689Z,-1.52
2023-02-28T19:54:06.657Z,-1.62
2023-02-28T19:57:12.931Z,-1.71
2023-02-28T20:00:19.072Z,-1.75
2023-02-28T20:03:25.732Z,-1.76
2023-02-28T20:06:34.437Z,-1.78
2023-02-28T20:09:40.650Z,-1.82
2023-02-28T20:12:46.926Z,-1.86
2023-02-28T20:15:51.461Z,-1.96
2023-02-28T20:18:57.953Z,-2.08
2023-02-28T20:22:04.132Z,-2.15
2023-02-28T20:25:12.265Z,-2.19
2023-02-28T20:28:19.195Z,-2.19
2023-02-28T20:31:27.080Z,-2.20
2023-02-28T20:34:33.377Z,-2.27
2023-02-28T20:37:37.874Z,-2.33
2023-02-28T20:40:44.172Z,-2.38
2023-02-28T20:43:48.926Z,-2.40
2023-02-28T20:46:55.085Z,-2.45
2023-02-28T20:50:01.329Z,-2.54
2023-02-28T20:53:05.961Z,-2.58
2023-02-28T20:56:16.193Z,-2.61
2023-02-28T20:59:22.515Z,-2.58
2023-02-28T21:02:26.996Z,-2.55
2023-02-28T21:05:33.230Z,-2.55
2023-02-28T21:08:40.904Z,-2.56
2023-02-28T21:11:47.515Z,-2.57
2023-02-28T21:14:54.248Z,-2.56
2023-02-28T21:18:00.501Z,-2.50
2023-02-28T21:21:08.612Z,-2.50
2023-02-28T21:24:15.695Z,-2.53
2023-02-28T21:27:21.906Z,-2.55
2023-02-28T21:30:28.429Z,-2.59
2023-02-28T21:33:36.002Z,-2.64
2023-02-28T21:36:45.776Z,-2.70
2023-02-28T21:39:52.113Z,-2.74
2023-02-28T21:42:58.413Z,-2.80
2023-02-28T21:46:06.790Z,-2.87
2023-02-28T21:49:13.176Z,-2.91
2023-02-28T21:52:24.992Z,-2.93
2023-02-28T21:55:31.284Z,-2.95
2023-02-28T21:58:35.732Z,-2.98
2023-02-28T22:01:44.234Z,-3.05
2023-02-28T22:04:50.780Z,-3.13
2023-02-28T22:07:57.032Z,-3.23
2023-02-28T22:11:06.767Z,-3.25
2023-02-28T22:14:12.986Z,-3.21
2023-02-28T22:17:19.162Z,-3.16
2023-02-28T22:20:25.428Z,-3.14
2023-02-28T22:23:29.845Z,-3.13
2023-02-28T22:26:36.514Z,-3.14
2023-02-28T22:29:43.049Z,-3.10
2023-02-28T22:32:49.820Z,-3.12
2023-02-28T22:35:56.107Z,-3.16
2023-02-28T22:39:01.553Z,-3.20
2023-02-28T22:42:07.917Z,-3.24
2023-02-28T22:45:14.906Z,-3.25
2023-02-28T22:48:21.479Z,-3.27
2023-02-28T22:51:28.634Z,-3.29
2023-02-28T22:54:34.452Z,-3.31
2023-02-28T22:57:40.897Z,-3.32
2023-02-28T23:00:47.300Z,-3.34
2023-02-28T23:03:54.317Z,-3.35
2023-02-28T23:07:00.715Z,-3.35
2023-02-28T23:10:12.837Z,-3.34
2023-02-28T23:13:20.291Z,-3.33
2023-02-28T23:16:27.849Z,-3.34
2023-02-28T23:19:34.288Z,-3.38
2023-02-28T23:22:40.779Z,-3.44
2023-02-28T23:25:47.301Z,-3.49
2023-02-28T23:28:53.719Z,-3.53
2023-02-28T23:32:00.342Z,-3.58
2023-02-28T23:35:08.660Z,-3.67
2023-02-28T23:38:14.910Z,-3.79
2023-02-28T23:41:20.298Z,-3.88
2023-02-28T23:44:26.736Z,-3.95
2023-02-28T23:47:33.421Z,-3.97
2023-02-28T23:50:40.534Z,-3.94
2023-02-28T23:53:48.823Z,-3.89
2023-02-28T23:56:55.378Z,-3.88
